createdAt,value
2018-07-13T00:01:14.036Z,16.59
2018-07-13T00:03:44.013Z,16.49
2018-07-13T00:06:14.073Z,16.53
2018-07-13T00:08:44.061Z,16.67
2018-07-13T00:11:14.146Z,16.57
2018-07-13T00:14:13.872Z,16.50
2018-07-13T00:16:44.963Z,16.23
2018-07-13T00:19:20.097Z,16.43
2018-07-13T00:21:48.788Z,16.54
2018-07-13T00:24:17.396Z,16.20
2018-07-13T00:26:45.944Z,16.24
2018-07-13T00:29:14.540Z,16.10
2018-07-13T00:31:43.737Z,16.20
2018-07-13T00:34:12.604Z,16.19
2018-07-13T00:36:41.164Z,16.24
2018-07-13T00:39:11.575Z,16.18
2018-07-13T00:41:40.184Z,16.21
2018-07-13T00:44:09.148Z,16.13
2018-07-13T00:46:37.676Z,16.24
2018-07-13T00:49:06.415Z,16.05
2018-07-13T00:51:35.013Z,16.04
2018-07-13T00:54:03.584Z,16.08
2018-07-13T00:56:32.132Z,15.87
2018-07-13T00:59:00.699Z,15.96
2018-07-13T01:01:29.241Z,15.88
2018-07-13T01:03:57.819Z,16.00
2018-07-13T01:06:26.347Z,15.99
2018-07-13T01:08:54.910Z,16.10
2018-07-13T01:11:23.452Z,15.85
2018-07-13T01:13:52.720Z,15.61
2018-07-13T01:16:21.264Z,15.56
2018-07-13T01:18:49.836Z,15.78
2018-07-13T01:21:18.375Z,15.79
2018-07-13T01:23:46.948Z,15.60
2018-07-13T01:26:15.500Z,15.47
2018-07-13T01:28:44.080Z,15.61
2018-07-13T01:31:12.620Z,15.56
2018-07-13T01:33:41.197Z,15.66
2018-07-13T01:36:09.721Z,15.37
2018-07-13T01:38:38.265Z,15.27
2018-07-13T01:41:06.789Z,15.40
2018-07-13T01:43:35.340Z,15.42
2018-07-13T01:46:03.884Z,15.19
2018-07-13T01:48:32.445Z,15.10
2018-07-13T01:51:00.964Z,15.39
2018-07-13T01:53:29.516Z,15.32
2018-07-13T01:55:58.065Z,15.41
2018-07-13T01:58:26.608Z,15.27
2018-07-13T02:00:55.111Z,15.33
2018-07-13T02:03:23.683Z,15.58
2018-07-13T02:05:52.189Z,15.46
2018-07-13T02:08:20.728Z,15.30
2018-07-13T02:10:49.256Z,15.11
2018-07-13T02:13:17.811Z,15.09
2018-07-13T02:15:46.380Z,14.97
2018-07-13T02:18:14.892Z,14.88
2018-07-13T02:20:44.043Z,14.74
2018-07-13T02:23:12.555Z,14.83
2018-07-13T02:25:41.100Z,15.09
2018-07-13T02:28:09.625Z,15.09
2018-07-13T02:30:38.165Z,15.03
2018-07-13T02:33:06.717Z,14.90
2018-07-13T02:35:35.286Z,14.80
2018-07-13T02:38:03.792Z,14.78
2018-07-13T02:40:32.342Z,14.87
2018-07-13T02:43:00.854Z,14.85
2018-07-13T02:45:29.405Z,14.94
2018-07-13T02:47:57.938Z,15.02
2018-07-13T02:50:26.491Z,15.14
2018-07-13T02:52:55.009Z,15.09
2018-07-13T02:55:23.553Z,14.85
2018-07-13T02:57:52.077Z,14.84
2018-07-13T03:00:20.644Z,14.78
2018-07-13T03:02:49.173Z,14.58
2018-07-13T03:05:17.720Z,14.70
2018-07-13T03:07:46.239Z,14.70
2018-07-13T03:10:14.801Z,14.59
2018-07-13T03:12:43.322Z,14.65
2018-07-13T03:15:11.905Z,14.55
2018-07-13T03:17:40.443Z,14.35
2018-07-13T03:20:09.306Z,14.25
2018-07-13T03:22:37.817Z,14.49
2018-07-13T03:25:06.548Z,14.46
2018-07-13T03:27:35.066Z,14.14
2018-07-13T03:30:03.645Z,14.29
2018-07-13T03:32:32.202Z,14.48
2018-07-13T03:35:00.746Z,14.38
2018-07-13T03:37:29.269Z,14.37
2018-07-13T03:39:57.841Z,14.49
2018-07-13T03:42:26.344Z,14.42
2018-07-13T03:44:54.888Z,14.25
2018-07-13T03:47:23.400Z,14.36
2018-07-13T03:49:51.944Z,14.48
2018-07-13T03:52:20.494Z,14.65
2018-07-13T03:54:49.039Z,14.38
2018-07-13T03:57:17.566Z,14.25
2018-07-13T03:59:46.138Z,14.22
2018-07-13T04:02:14.672Z,14.34
2018-07-13T04:04:43.225Z,14.29
2018-07-13T04:07:11.828Z,14.29
2018-07-13T04:09:40.296Z,14.15
2018-07-13T04:12:08.881Z,14.26
2018-07-13T04:14:37.491Z,14.37
2018-07-13T04:17:06.021Z,14.23
2018-07-13T04:19:34.600Z,14.23
2018-07-13T04:22:03.201Z,14.48
2018-07-13T04:24:31.778Z,14.34
2018-07-13T04:27:00.659Z,14.48
2018-07-13T04:29:29.188Z,14.56
2018-07-13T04:31:57.773Z,14.45
2018-07-13T04:34:26.333Z,14.35
2018-07-13T04:36:54.909Z,14.63
2018-07-13T04:39:23.430Z,14.69
2018-07-13T04:41:51.981Z,14.73
2018-07-13T04:44:20.511Z,14.70
2018-07-13T04:46:49.090Z,14.91
2018-07-13T04:49:17.648Z,14.88
2018-07-13T04:51:46.374Z,14.88
2018-07-13T04:54:14.940Z,14.81
2018-07-13T04:56:43.821Z,15.11
2018-07-13T04:59:12.457Z,15.15
2018-07-13T05:01:41.077Z,15.11
2018-07-13T05:04:09.644Z,15.11
2018-07-13T05:06:38.229Z,15.31
2018-07-13T05:09:07.728Z,15.16
2018-07-13T05:11:36.364Z,15.40
2018-07-13T05:14:04.945Z,15.34
2018-07-13T05:16:33.524Z,15.48
2018-07-13T05:19:02.037Z,15.55
2018-07-13T05:21:30.625Z,15.56
2018-07-13T05:23:59.193Z,15.60
2018-07-13T05:26:28.285Z,15.64
2018-07-13T05:28:56.891Z,15.77
2018-07-13T05:31:25.508Z,15.75
2018-07-13T05:33:54.088Z,15.71
2018-07-13T05:36:22.676Z,15.88
2018-07-13T05:38:51.244Z,16.08
2018-07-13T05:41:20.696Z,16.05
2018-07-13T05:43:49.446Z,16.02
2018-07-13T05:46:18.029Z,16.14
2018-07-13T05:48:46.587Z,16.11
2018-07-13T05:51:15.180Z,16.32
2018-07-13T05:53:43.745Z,16.53
2018-07-13T05:56:12.332Z,16.52
2018-07-13T05:58:40.893Z,16.66
2018-07-13T06:01:09.498Z,16.76
2018-07-13T06:03:38.055Z,16.84
2018-07-13T06:06:06.633Z,16.84
2018-07-13T06:08:35.212Z,16.86
2018-07-13T06:11:03.817Z,16.98
2018-07-13T06:13:32.381Z,17.12
2018-07-13T06:16:00.975Z,17.22
2018-07-13T06:18:29.536Z,17.31
2018-07-13T06:20:58.057Z,17.19
2018-07-13T06:23:26.624Z,17.34
2018-07-13T06:25:55.141Z,17.43
2018-07-13T06:28:23.813Z,17.65
2018-07-13T06:30:52.336Z,17.66
2018-07-13T06:33:20.958Z,17.77
2018-07-13T06:35:49.471Z,17.98
2018-07-13T06:38:18.044Z,18.09
2018-07-13T06:40:47.947Z,18.23
2018-07-13T06:43:17.208Z,18.27
2018-07-13T06:45:45.729Z,18.40
2018-07-13T06:48:17.352Z,18.50
2018-07-13T06:50:45.907Z,18.64
2018-07-13T06:53:16.089Z,18.75
2018-07-13T06:55:45.015Z,18.81
2018-07-13T06:58:24.925Z,18.92
2018-07-13T07:00:56.912Z,19.09
2018-07-13T07:03:26.162Z,19.04
2018-07-13T07:05:59.003Z,19.07
2018-07-13T07:08:27.617Z,19.26
2018-07-13T07:10:56.707Z,19.39
2018-07-13T07:13:38.856Z,19.49
2018-07-13T07:16:07.400Z,19.68
2018-07-13T07:18:36.172Z,19.78
2018-07-13T07:21:04.728Z,19.90
2018-07-13T07:23:33.663Z,20.06
2018-07-13T07:26:03.044Z,20.19
2018-07-13T07:28:31.625Z,20.23
2018-07-13T07:31:01.154Z,20.33
2018-07-13T07:33:29.780Z,20.38
2018-07-13T07:35:58.304Z,20.53
2018-07-13T07:38:29.705Z,20.67
2018-07-13T07:40:58.728Z,20.74
2018-07-13T07:43:34.353Z,20.85
2018-07-13T07:46:03.071Z,20.88
2018-07-13T07:48:31.669Z,21.00
2018-07-13T07:51:00.200Z,21.11
2018-07-13T07:53:28.792Z,21.32
2018-07-13T07:55:58.161Z,21.30
2018-07-13T07:58:26.892Z,21.39
2018-07-13T08:00:55.428Z,21.55
2018-07-13T08:03:23.952Z,21.69
2018-07-13T08:05:52.573Z,21.68
2018-07-13T08:08:21.080Z,21.75
2018-07-13T08:10:53.143Z,21.86
2018-07-13T08:13:21.812Z,21.97
2018-07-13T08:15:51.424Z,22.01
2018-07-13T08:18:20.581Z,21.96
2018-07-13T08:21:05.061Z,22.00
2018-07-13T08:23:45.639Z,22.05
2018-07-13T08:26:16.836Z,22.27
2018-07-13T08:28:58.276Z,22.27
2018-07-13T08:31:39.613Z,22.41
2018-07-13T08:34:08.274Z,22.56
2018-07-13T08:36:37.985Z,22.53
2018-07-13T08:39:07.607Z,22.45
2018-07-13T08:41:36.836Z,22.57
2018-07-13T08:44:05.553Z,22.64
2018-07-13T08:46:34.221Z,22.85
2018-07-13T08:49:02.817Z,22.81
2018-07-13T08:51:31.991Z,22.80
2018-07-13T08:54:01.068Z,22.82
2018-07-13T08:56:30.329Z,22.83
2018-07-13T08:59:00.708Z,22.79
2018-07-13T09:01:29.365Z,22.94
2018-07-13T09:03:58.499Z,23.03
2018-07-13T09:06:29.224Z,22.96
2018-07-13T09:08:58.073Z,23.21
2018-07-13T09:11:26.677Z,23.37
2018-07-13T09:13:56.244Z,23.38
2018-07-13T09:16:25.609Z,23.24
2018-07-13T09:18:54.316Z,23.35
2018-07-13T09:21:22.901Z,23.54
2018-07-13T09:24:04.037Z,23.59
2018-07-13T09:26:32.696Z,23.92
2018-07-13T09:29:01.918Z,24.18
2018-07-13T09:31:31.941Z,24.17
2018-07-13T09:34:00.829Z,24.07
2018-07-13T09:36:31.064Z,24.18
2018-07-13T09:38:59.904Z,24.41
2018-07-13T09:41:28.548Z,24.67
2018-07-13T09:43:57.258Z,24.82
2018-07-13T09:46:26.047Z,24.94
2018-07-13T09:48:55.130Z,24.86
2018-07-13T09:51:23.764Z,24.73
2018-07-13T09:53:52.681Z,24.51
2018-07-13T09:56:27.273Z,24.68
2018-07-13T09:58:56.270Z,24.56
2018-07-13T10:01:25.356Z,24.74
2018-07-13T10:04:09.310Z,25.08
2018-07-13T10:06:51.127Z,25.32
2018-07-13T10:09:32.868Z,25.52
2018-07-13T10:12:21.459Z,25.70
2018-07-13T10:15:00.915Z,25.76
2018-07-13T10:17:41.203Z,25.98
2018-07-13T10:20:17.698Z,25.93
2018-07-13T10:22:46.716Z,26.18
2018-07-13T10:25:15.409Z,26.04
2018-07-13T10:27:44.052Z,26.16
2018-07-13T10:30:13.748Z,26.34
2018-07-13T10:32:44.372Z,26.47
2018-07-13T10:35:13.104Z,26.65
2018-07-13T10:37:42.896Z,26.83
2018-07-13T10:40:11.441Z,26.99
2018-07-13T10:42:40.014Z,26.89
2018-07-13T10:45:08.945Z,26.92
2018-07-13T10:47:38.400Z,27.14
2018-07-13T10:50:07.649Z,27.40
2018-07-13T10:52:47.782Z,27.47
2018-07-13T10:55:27.158Z,27.57
2018-07-13T10:58:06.867Z,27.39
2018-07-13T11:00:54.573Z,26.72
2018-07-13T11:03:24.947Z,26.96
2018-07-13T11:05:53.537Z,26.94
2018-07-13T11:08:22.989Z,27.22
2018-07-13T11:10:52.232Z,27.03
2018-07-13T11:13:22.964Z,27.03
2018-07-13T11:15:51.632Z,26.62
2018-07-13T11:18:24.721Z,26.59
2018-07-13T11:20:54.409Z,26.23
2018-07-13T11:23:25.597Z,25.75
2018-07-13T11:25:54.613Z,26.28
2018-07-13T11:28:25.100Z,25.93
2018-07-13T11:30:55.847Z,26.05
2018-07-13T11:33:24.727Z,26.16
2018-07-13T11:35:56.007Z,25.76
2018-07-13T11:38:25.165Z,25.98
2018-07-13T11:40:54.801Z,25.74
2018-07-13T11:43:25.090Z,26.05
2018-07-13T11:45:54.916Z,25.84
2018-07-13T11:48:24.510Z,25.84
2018-07-13T11:50:57.676Z,25.72
2018-07-13T11:53:33.261Z,25.83
2018-07-13T11:56:02.404Z,26.23
2018-07-13T11:58:31.331Z,26.21
2018-07-13T12:01:00.150Z,26.32
2018-07-13T12:03:28.927Z,26.43
2018-07-13T12:06:12.076Z,26.46
2018-07-13T12:08:57.028Z,26.37
2018-07-13T12:11:35.376Z,26.56
2018-07-13T12:14:04.401Z,26.77
2018-07-13T12:16:32.927Z,26.72
2018-07-13T12:19:01.629Z,26.59
2018-07-13T12:21:32.290Z,26.79
2018-07-13T12:24:00.992Z,26.81
2018-07-13T12:26:29.504Z,27.07
2018-07-13T12:28:58.065Z,26.91
2018-07-13T12:31:27.229Z,26.49
2018-07-13T12:33:55.809Z,26.64
2018-07-13T12:36:32.867Z,26.40
2018-07-13T12:39:11.680Z,26.55
2018-07-13T12:44:48.583Z,26.19
2018-07-13T12:47:31.658Z,26.29
2018-07-13T12:50:12.290Z,26.13
2018-07-13T12:58:46.077Z,26.24
2018-07-13T13:01:25.627Z,26.48
2018-07-13T13:04:13.742Z,26.57
2018-07-13T13:07:01.892Z,26.50
2018-07-13T13:12:38.198Z,26.95
2018-07-13T13:15:26.285Z,27.16
2018-07-13T13:18:10.023Z,27.59
2018-07-13T13:23:54.954Z,27.91
2018-07-13T13:26:36.832Z,27.99
2018-07-13T13:29:18.432Z,28.15
2018-07-13T13:37:30.149Z,28.81
2018-07-13T13:43:04.577Z,28.87
2018-07-13T13:45:51.413Z,29.03
2018-07-13T13:48:35.804Z,29.18
2018-07-13T13:51:18.734Z,29.28
2018-07-13T13:54:03.634Z,28.79
2018-07-13T13:56:45.228Z,28.64
2018-07-13T13:59:27.281Z,28.73
2018-07-13T14:02:10.385Z,28.88
2018-07-13T14:04:57.997Z,28.67
2018-07-13T14:07:39.737Z,28.74
2018-07-13T14:10:26.921Z,29.27
2018-07-13T14:13:08.579Z,29.22
2018-07-13T14:15:55.928Z,29.08
2018-07-13T14:18:40.125Z,28.93
2018-07-13T14:21:29.349Z,28.67
2018-07-13T14:24:16.614Z,28.35
2018-07-13T14:26:46.293Z,28.61
2018-07-13T14:29:14.844Z,27.87
2018-07-13T14:31:43.372Z,27.84
2018-07-13T14:34:12.801Z,27.90
2018-07-13T14:36:43.080Z,27.91
2018-07-13T14:39:11.921Z,27.94
2018-07-13T14:41:40.445Z,28.08
2018-07-13T14:44:09.025Z,27.65
2018-07-13T14:46:37.591Z,27.73
2018-07-13T14:49:06.644Z,27.99
2018-07-13T14:51:35.251Z,28.20
2018-07-13T14:54:03.873Z,28.77
2018-07-13T14:56:32.514Z,29.13
2018-07-13T14:59:01.177Z,28.98
2018-07-13T15:01:30.042Z,29.08
2018-07-13T15:03:58.626Z,29.04
2018-07-13T15:06:27.548Z,29.05
2018-07-13T15:08:56.224Z,29.07
2018-07-13T15:11:25.574Z,28.85
2018-07-13T15:13:54.282Z,28.45
2018-07-13T15:16:23.013Z,27.97
2018-07-13T15:18:53.147Z,27.80
2018-07-13T15:21:21.721Z,27.50
2018-07-13T15:23:51.745Z,27.56
2018-07-13T15:26:20.349Z,26.73
2018-07-13T15:28:48.857Z,26.77
2018-07-13T15:31:17.527Z,26.39
2018-07-13T15:33:46.086Z,26.02
2018-07-13T15:36:14.637Z,26.21
2018-07-13T15:41:13.140Z,25.97
2018-07-13T15:43:41.752Z,25.75
2018-07-13T15:46:10.616Z,25.98
2018-07-13T15:48:39.220Z,25.84
2018-07-13T15:51:07.809Z,26.12
2018-07-13T15:53:36.345Z,25.87
2018-07-13T15:56:05.845Z,26.33
2018-07-13T15:58:34.468Z,26.47
2018-07-13T16:01:03.024Z,26.31
2018-07-13T16:03:31.561Z,26.04
2018-07-13T16:06:00.366Z,26.09
2018-07-13T16:08:30.292Z,26.14
2018-07-13T16:10:59.317Z,26.22
2018-07-13T16:13:27.876Z,26.35
2018-07-13T16:15:56.421Z,26.64
2018-07-13T16:18:25.353Z,27.00
2018-07-13T16:20:56.264Z,27.23
2018-07-13T16:23:24.841Z,27.39
2018-07-13T16:25:53.393Z,27.57
2018-07-13T16:28:22.220Z,27.79
2018-07-13T16:30:51.232Z,27.86
2018-07-13T16:33:19.953Z,27.92
2018-07-13T16:35:48.884Z,28.23
2018-07-13T16:38:17.405Z,28.50
2018-07-13T16:40:45.947Z,28.42
2018-07-13T16:43:14.493Z,28.55
2018-07-13T16:45:43.029Z,28.73
2018-07-13T16:48:11.590Z,28.52
2018-07-13T16:50:40.514Z,28.91
2018-07-13T16:53:08.961Z,29.46
2018-07-13T16:55:37.489Z,32.15
2018-07-13T16:58:06.069Z,33.46
2018-07-13T17:00:35.100Z,34.43
2018-07-13T17:03:03.853Z,34.79
2018-07-13T17:05:32.383Z,34.50
2018-07-13T17:08:00.993Z,34.84
2018-07-13T17:10:29.537Z,35.84
2018-07-13T17:12:58.068Z,34.31
2018-07-13T17:15:27.758Z,34.45
2018-07-13T17:17:58.051Z,36.22
2018-07-13T17:20:27.601Z,34.58
2018-07-13T17:22:56.113Z,34.96
2018-07-13T17:25:25.531Z,34.88
2018-07-13T17:27:54.208Z,36.19
2018-07-13T17:30:22.756Z,35.22
2018-07-13T17:32:51.395Z,34.81
2018-07-13T17:35:19.960Z,34.30
2018-07-13T17:37:48.523Z,34.54
2018-07-13T17:40:17.059Z,34.13
2018-07-13T17:42:45.614Z,34.33
2018-07-13T17:45:15.652Z,32.92
2018-07-13T17:47:45.126Z,33.79
2018-07-13T17:50:13.655Z,33.09
2018-07-13T17:52:42.372Z,33.00
2018-07-13T17:55:10.924Z,33.29
2018-07-13T17:57:39.469Z,33.35
2018-07-13T18:00:08.324Z,32.10
2018-07-13T18:02:37.742Z,32.65
2018-07-13T18:05:06.621Z,32.91
2018-07-13T18:07:35.965Z,32.13
2018-07-13T18:10:06.940Z,30.08
2018-07-13T18:12:36.376Z,29.28
2018-07-13T18:15:05.164Z,28.91
2018-07-13T18:17:33.808Z,28.66
2018-07-13T18:20:02.748Z,28.61
2018-07-13T18:22:33.353Z,28.40
2018-07-13T18:25:03.697Z,28.22
2018-07-13T18:27:34.011Z,27.91
2018-07-13T18:30:03.060Z,27.35
2018-07-13T18:32:32.776Z,27.59
2018-07-13T18:35:11.289Z,27.19
2018-07-13T18:37:50.667Z,27.02
2018-07-13T18:40:29.696Z,26.93
2018-07-13T18:43:11.891Z,27.04
2018-07-13T18:45:53.534Z,26.85
2018-07-13T18:48:24.471Z,26.62
2018-07-13T18:50:53.512Z,26.58
2018-07-13T18:53:25.564Z,26.29
2018-07-13T18:55:55.681Z,26.03
2018-07-13T18:58:25.026Z,25.84
2018-07-13T19:00:54.718Z,25.49
2018-07-13T19:03:24.681Z,25.42
2018-07-13T19:05:53.352Z,25.24
2018-07-13T19:08:22.284Z,25.06
2018-07-13T19:10:50.857Z,24.89
2018-07-13T19:13:19.425Z,24.42
2018-07-13T19:15:47.964Z,24.56
2018-07-13T19:18:17.158Z,24.52
2018-07-13T19:20:46.867Z,24.27
2018-07-13T19:23:16.432Z,23.97
2018-07-13T19:25:45.990Z,23.93
2018-07-13T19:28:14.585Z,23.94
2018-07-13T19:30:44.087Z,23.89
2018-07-13T19:33:12.717Z,23.61
2018-07-13T19:35:41.270Z,23.25
2018-07-13T19:38:09.777Z,23.18
2018-07-13T19:40:38.332Z,22.96
2018-07-13T19:43:06.893Z,23.00
2018-07-13T19:45:37.441Z,22.74
2018-07-13T19:48:06.484Z,22.67
2018-07-13T19:50:53.725Z,22.45
2018-07-13T19:53:31.972Z,21.95
2018-07-13T19:56:10.450Z,22.34
2018-07-13T19:58:54.840Z,22.25
2018-07-13T20:04:19.159Z,21.87
2018-07-13T20:06:49.779Z,21.75
2018-07-13T20:09:22.561Z,21.80
2018-07-13T20:11:55.506Z,21.72
2018-07-13T20:14:26.491Z,21.58
2018-07-13T20:16:55.078Z,21.55
2018-07-13T20:19:24.333Z,21.40
2018-07-13T20:21:54.176Z,21.30
2018-07-13T20:24:28.497Z,21.30
2018-07-13T20:26:59.516Z,21.36
2018-07-13T20:29:28.089Z,21.42
2018-07-13T20:31:57.715Z,21.25
2018-07-13T20:34:26.455Z,21.20
2018-07-13T20:36:54.966Z,21.16
2018-07-13T20:39:23.554Z,21.18
2018-07-13T20:41:52.116Z,21.11
2018-07-13T20:44:28.586Z,21.10
2018-07-13T20:47:03.517Z,21.02
2018-07-13T20:49:32.312Z,21.04
2018-07-13T20:52:00.821Z,21.02
2018-07-13T20:54:29.486Z,21.04
2018-07-13T20:56:59.000Z,20.92
2018-07-13T20:59:28.426Z,20.70
2018-07-13T21:02:02.202Z,20.38
2018-07-13T21:04:33.880Z,20.31
2018-07-13T21:07:04.728Z,20.26
2018-07-13T21:09:34.188Z,20.38
2018-07-13T21:12:03.715Z,20.30
2018-07-13T21:14:34.306Z,20.23
2018-07-13T21:17:09.443Z,20.14
2018-07-13T21:19:39.431Z,20.13
2018-07-13T21:22:07.977Z,19.91
2018-07-13T21:24:36.492Z,19.96
2018-07-13T21:27:10.419Z,19.78
2018-07-13T21:29:43.519Z,19.83
2018-07-13T21:32:12.173Z,19.79
2018-07-13T21:34:45.255Z,19.72
2018-07-13T21:37:18.901Z,19.43
2018-07-13T21:39:49.116Z,19.49
2018-07-13T21:42:20.701Z,19.69
2018-07-13T21:44:51.585Z,19.79
2018-07-13T21:47:21.809Z,19.39
2018-07-13T21:49:51.609Z,19.07
2018-07-13T21:52:25.267Z,19.01
2018-07-13T21:54:54.206Z,19.07
2018-07-13T21:57:25.541Z,19.16
2018-07-13T21:59:59.343Z,19.22
2018-07-13T22:02:29.752Z,19.29
2018-07-13T22:05:00.905Z,19.29
2018-07-13T22:07:32.932Z,19.31
2018-07-13T22:10:09.586Z,19.32
2018-07-13T22:12:43.383Z,19.36
2018-07-13T22:15:15.213Z,19.16
2018-07-13T22:17:50.716Z,19.12
2018-07-13T22:20:25.695Z,18.96
2018-07-13T22:22:56.261Z,18.99
2018-07-13T22:25:25.795Z,18.62
2018-07-13T22:27:56.478Z,18.57
2018-07-13T22:30:28.025Z,18.56
2018-07-13T22:32:57.233Z,18.39
2018-07-13T22:35:30.027Z,18.61
2018-07-13T22:38:00.069Z,18.63
2018-07-13T22:40:29.803Z,18.71
2018-07-13T22:42:59.425Z,18.73
2018-07-13T22:45:30.372Z,18.42
2018-07-13T22:48:01.868Z,18.59
2018-07-13T22:50:31.975Z,18.59
2018-07-13T22:53:01.403Z,18.58
2018-07-13T22:55:34.056Z,18.59
2018-07-13T22:58:03.968Z,18.50
2018-07-13T23:00:33.836Z,18.11
2018-07-13T23:03:04.273Z,18.26
2018-07-13T23:05:33.899Z,18.50
2018-07-13T23:08:03.138Z,18.33
2018-07-13T23:10:33.064Z,18.43
2018-07-13T23:13:02.992Z,18.38
2018-07-13T23:15:33.267Z,18.30
2018-07-13T23:18:03.708Z,18.14
2018-07-13T23:20:33.693Z,18.15
2018-07-13T23:23:03.805Z,18.06
2018-07-13T23:25:33.697Z,17.94
2018-07-13T23:28:03.890Z,17.88
2018-07-13T23:30:33.700Z,17.81
2018-07-13T23:33:04.136Z,17.64
2018-07-13T23:35:34.051Z,17.71
2018-07-13T23:38:03.912Z,17.40
2018-07-13T23:40:32.684Z,17.36
2018-07-13T23:43:02.892Z,17.28
2018-07-13T23:45:33.077Z,17.60
2018-07-13T23:48:02.839Z,17.76
2018-07-13T23:50:32.785Z,17.79
2018-07-13T23:53:02.824Z,17.54
2018-07-13T23:55:33.129Z,17.40
2018-07-13T23:58:03.460Z,17.49
